KGUC

Gunnison-Crested Butte Regional Airport

Gunnison, Colorado, USA
KGUC 171813Z 1718/1818 15003KT P6SM FEW002 TEMPO 1718/1719 VRB03KT 5SM BR BKN002 FM171900 VRB04KT P6SM VCFG FEW002 BKN110 FM180000 15005KT P6SM VCSH BKN030 OVC045 FM180200 22006KT P6SM VCSH BKN010 OVC040 FM180400 24006KT 1SM -SN BKN008 OVC035 FM181000 25007KT 1SM -SN BKN003 OVC025 WS020/27040KT
Issued Valid From Valid To
Jan-17 @ 18:13 UTC
(5 hours ago)
Jan-17 @ 18:00 UTC
(5 hours ago)
Jan-18 @ 18:00 UTC
(in 19 hours)
Expired Click to View Jan-17 @ 18:00 to Jan-17 @ 19:00
KGUC 171813Z 1718/1818 15003KT P6SM FEW002
Wind Visibility Clouds
150° at 3 knots Greater than 6 miles
  • Few at 200' AGL
Expired Click to View Jan-17 @ 18:00 to Jan-17 @ 19:00
TEMPO 1718/1719 VRB03KT 5SM BR BKN002
Wind Visibility Clouds Conditions
Variable at 3 knots 5 miles
  • Broken at 200' AGL
  • Mist
From Jan-17 @ 19:00 to Jan-18 @ 00:00
FM171900 VRB04KT P6SM VCFG FEW002 BKN110
Wind Visibility Clouds Conditions
Variable at 4 knots Greater than 6 miles
  • Few at 200' AGL
  • Broken at 11,000' AGL
  • Area Fog
From Jan-18 @ 00:00 to Jan-18 @ 02:00
FM180000 15005KT P6SM VCSH BKN030 OVC045
Wind Visibility Clouds
150° at 5 knots Greater than 6 miles
  • Broken at 3,000' AGL
  • Overcast at 4,500' AGL
From Jan-18 @ 02:00 to Jan-18 @ 04:00
FM180200 22006KT P6SM VCSH BKN010 OVC040
Wind Visibility Clouds
220° at 6 knots Greater than 6 miles
  • Broken at 1,000' AGL
  • Overcast at 4,000' AGL
From Jan-18 @ 04:00 to Jan-18 @ 10:00
FM180400 24006KT 1SM -SN BKN008 OVC035
Wind Visibility Clouds Conditions
240° at 6 knots 1 miles
  • Broken at 800' AGL
  • Overcast at 3,500' AGL
  • Light Snow
From Jan-18 @ 10:00 to Jan-18 @ 18:00
FM181000 25007KT 1SM -SN BKN003 OVC025 WS020/27040KT
Wind Visibility Clouds Conditions
250° at 7 knots
 Wind shear 2,000' AGL from 270° at 40 knots
1 miles
  • Broken at 300' AGL
  • Overcast at 2,500' AGL
  • Light Snow
KGUC 171813Z 1718/1818 15003KT P6SM FEW002 TEMPO 1718/1719 VRB03KT 5SM BR BKN002 FM171900 VRB04KT P6SM VCFG FEW002 BKN110 FM180000 15005KT P6SM VCSH BKN030 OVC045 FM180200 22006KT P6SM VCSH BKN010 OVC040 FM180400 24006KT 1SM -SN BKN008 OVC035 FM181000 25007KT 1SM -SN BKN003 OVC025 WS020/27040KT
Issued Jan-17 @ 18:13 UTC
(5 hours ago)
Valid From Jan-17 @ 18:00 UTC
(5 hours ago)
Valid To Jan-18 @ 18:00 UTC
(in 19 hours)
Jan-17 @ 18:00 - Jan-17 @ 19:00
Wind Visibility
150° at 3 knots Greater than 6 miles
Clouds
  • Few at 200' AGL
Jan-17 @ 18:00 - Jan-17 @ 19:00
Wind Visibility
Variable at 3 knots 5 miles
Clouds
  • Broken at 200' AGL
Conditions
  • Mist
From Jan-17 @ 19:00 - Jan-18 @ 00:00
Wind Visibility
Variable at 4 knots Greater than 6 miles
Clouds
  • Few at 200' AGL
  • Broken at 11,000' AGL
Conditions
  • Area Fog
From Jan-18 @ 00:00 - Jan-18 @ 02:00
Wind Visibility
150° at 5 knots Greater than 6 miles
Clouds
  • Broken at 3,000' AGL
  • Overcast at 4,500' AGL
From Jan-18 @ 02:00 - Jan-18 @ 04:00
Wind Visibility
220° at 6 knots Greater than 6 miles
Clouds
  • Broken at 1,000' AGL
  • Overcast at 4,000' AGL
From Jan-18 @ 04:00 - Jan-18 @ 10:00
Wind Visibility
240° at 6 knots 1 miles
Clouds
  • Broken at 800' AGL
  • Overcast at 3,500' AGL
Conditions
  • Light Snow
From Jan-18 @ 10:00 - Jan-18 @ 18:00
Wind Visibility
250° at 7 knots 1 miles
Clouds
  • Broken at 300' AGL
  • Overcast at 2,500' AGL
Conditions
  • Light Snow